createdAt,value
2023-01-13T00:01:29.343Z,1.02
2023-01-13T00:03:57.447Z,1.02
2023-01-13T00:06:29.710Z,1.04
2023-01-13T00:08:56.958Z,1.04
2023-01-13T00:11:24.681Z,0.93
2023-01-13T00:13:51.968Z,0.88
2023-01-13T00:16:20.126Z,0.86
2023-01-13T00:18:48.449Z,0.87
2023-01-13T00:21:19.562Z,0.89
2023-01-13T00:23:47.644Z,0.90
2023-01-13T00:26:18.452Z,0.93
2023-01-13T00:28:45.568Z,0.87
2023-01-13T00:31:16.337Z,0.83
2023-01-13T00:33:44.041Z,0.88
2023-01-13T00:36:16.126Z,0.80
2023-01-13T00:38:44.139Z,0.81
2023-01-13T00:41:16.386Z,0.81
2023-01-13T00:43:44.280Z,0.81
2023-01-13T00:46:14.347Z,0.84
2023-01-13T00:48:41.339Z,0.83
2023-01-13T00:51:13.329Z,0.82
2023-01-13T00:53:43.643Z,0.85
2023-01-13T00:56:34.046Z,0.79
2023-01-13T00:59:06.008Z,0.76
2023-01-13T01:01:33.519Z,0.82
2023-01-13T01:04:00.444Z,0.78
2023-01-13T01:06:28.521Z,0.77
2023-01-13T01:08:56.125Z,0.82
2023-01-13T01:11:29.242Z,0.87
2023-01-13T01:13:58.532Z,0.86
2023-01-13T01:16:28.629Z,0.80
2023-01-13T01:18:56.528Z,0.79
2023-01-13T01:21:25.914Z,0.82
2023-01-13T01:23:53.895Z,0.83
2023-01-13T01:26:25.887Z,0.85
2023-01-13T01:28:53.964Z,0.91
2023-01-13T01:31:27.618Z,0.75
2023-01-13T01:33:55.887Z,0.74
2023-01-13T01:36:26.307Z,0.69
2023-01-13T01:38:58.058Z,0.61
2023-01-13T01:41:28.287Z,0.65
2023-01-13T01:44:10.716Z,0.54
2023-01-13T01:46:42.827Z,0.63
2023-01-13T01:49:43.164Z,0.51
2023-01-13T01:52:19.971Z,0.55
2023-01-13T01:54:58.924Z,0.57
2023-01-13T01:57:53.403Z,0.52
2023-01-13T02:00:20.922Z,0.54
2023-01-13T02:02:50.604Z,0.49
2023-01-13T02:05:18.123Z,0.56
2023-01-13T02:07:49.564Z,0.60
2023-01-13T02:10:20.845Z,0.61
2023-01-13T02:12:49.966Z,0.71
2023-01-13T02:15:21.325Z,0.70
2023-01-13T02:18:15.970Z,0.72
2023-01-13T02:20:55.010Z,0.77
2023-01-13T02:23:59.491Z,0.87
2023-01-13T02:26:51.162Z,0.92
2023-01-13T02:29:57.085Z,0.91
2023-01-13T02:32:34.682Z,0.95
2023-01-13T02:35:07.772Z,1.01
2023-01-13T02:37:39.729Z,1.04
2023-01-13T02:40:10.534Z,0.98
2023-01-13T02:43:04.133Z,0.99
2023-01-13T02:45:44.381Z,0.92
2023-01-13T02:48:14.364Z,0.98
2023-01-13T02:51:07.723Z,0.98
2023-01-13T02:53:40.937Z,1.01
2023-01-13T02:56:13.885Z,1.05
2023-01-13T02:58:43.582Z,1.09
2023-01-13T03:01:10.706Z,1.07
2023-01-13T03:03:38.045Z,1.07
2023-01-13T03:06:25.975Z,1.08
2023-01-13T03:09:06.383Z,1.11
2023-01-13T03:11:50.605Z,1.16
2023-01-13T03:14:55.487Z,1.11
2023-01-13T03:17:40.208Z,1.15
2023-01-13T03:20:16.846Z,1.11
2023-01-13T03:23:14.605Z,1.15
2023-01-13T03:25:51.004Z,1.11
2023-01-13T03:28:29.013Z,1.15
2023-01-13T03:31:08.285Z,1.17
2023-01-13T03:33:45.975Z,1.12
2023-01-13T03:36:18.121Z,1.20
2023-01-13T03:38:51.724Z,1.17
2023-01-13T03:41:25.724Z,1.22
2023-01-13T03:44:19.246Z,1.09
2023-01-13T03:47:09.489Z,1.12
2023-01-13T03:49:55.565Z,1.17
2023-01-13T03:52:28.534Z,1.10
2023-01-13T03:55:04.452Z,1.07
2023-01-13T03:57:37.688Z,0.99
2023-01-13T04:00:09.729Z,1.00
2023-01-13T04:02:59.412Z,1.05
2023-01-13T04:05:28.720Z,1.15
2023-01-13T04:08:05.877Z,1.19
2023-01-13T04:10:41.192Z,1.15
2023-01-13T04:13:16.688Z,1.22
2023-01-13T04:15:46.184Z,1.26
2023-01-13T04:18:30.609Z,1.25
2023-01-13T04:21:00.210Z,1.14
2023-01-13T04:23:28.259Z,1.11
2023-01-13T04:25:56.126Z,1.19
2023-01-13T04:28:23.486Z,1.05
2023-01-13T04:30:50.898Z,1.05
2023-01-13T04:33:20.444Z,1.13
2023-01-13T04:35:49.886Z,1.16
2023-01-13T04:38:19.651Z,1.32
2023-01-13T04:40:46.767Z,1.29
2023-01-13T04:43:15.919Z,1.30
2023-01-13T04:45:44.121Z,1.28
2023-01-13T04:48:11.649Z,1.26
2023-01-13T04:50:39.715Z,1.27
2023-01-13T04:53:07.369Z,1.25
2023-01-13T04:55:36.557Z,1.30
2023-01-13T04:58:10.240Z,1.30
2023-01-13T05:00:39.261Z,1.28
2023-01-13T05:03:14.329Z,1.32
2023-01-13T05:05:44.123Z,1.35
2023-01-13T05:08:13.652Z,1.21
2023-01-13T05:10:41.368Z,1.15
2023-01-13T05:13:29.404Z,1.25
2023-01-13T05:16:21.469Z,1.31
2023-01-13T05:18:49.863Z,1.32
2023-01-13T05:21:35.683Z,1.28
2023-01-13T05:24:21.485Z,1.41
2023-01-13T05:26:48.685Z,1.28
2023-01-13T05:29:15.802Z,1.35
2023-01-13T05:31:43.408Z,1.24
2023-01-13T05:34:10.911Z,1.30
2023-01-13T05:36:37.967Z,1.28
2023-01-13T05:39:05.502Z,1.10
2023-01-13T05:41:51.734Z,1.05
2023-01-13T05:44:19.253Z,1.15
2023-01-13T05:46:46.579Z,1.00
2023-01-13T05:49:13.892Z,1.07
2023-01-13T05:51:40.940Z,1.10
2023-01-13T05:54:08.043Z,1.09
2023-01-13T05:56:35.449Z,1.03
2023-01-13T05:59:02.944Z,1.02
2023-01-13T06:01:29.943Z,1.03
2023-01-13T06:03:57.644Z,1.00
2023-01-13T06:06:24.689Z,0.96
2023-01-13T06:08:52.207Z,1.05
2023-01-13T06:11:19.564Z,1.10
2023-01-13T06:13:47.003Z,1.04
2023-01-13T06:16:14.187Z,1.02
2023-01-13T06:18:41.641Z,1.03
2023-01-13T06:21:08.925Z,1.02
2023-01-13T06:23:38.884Z,0.99
2023-01-13T06:26:14.766Z,1.00
2023-01-13T06:28:42.458Z,0.81
2023-01-13T06:31:10.976Z,1.29
2023-01-13T06:33:44.048Z,1.84
2023-01-13T06:36:19.739Z,2.08
2023-01-13T06:38:50.303Z,1.97
2023-01-13T06:41:39.567Z,1.74
2023-01-13T06:44:07.511Z,1.50
2023-01-13T06:46:36.080Z,1.36
2023-01-13T06:49:04.216Z,1.38
2023-01-13T06:51:31.509Z,1.28
2023-01-13T06:53:58.606Z,1.34
2023-01-13T06:56:25.905Z,1.36
2023-01-13T06:58:53.085Z,1.26
2023-01-13T07:01:20.525Z,1.15
2023-01-13T07:03:47.883Z,1.10
2023-01-13T07:06:15.085Z,1.14
2023-01-13T07:08:42.855Z,1.12
2023-01-13T07:11:09.804Z,1.07
2023-01-13T07:13:55.672Z,1.16
2023-01-13T07:16:24.618Z,1.11
2023-01-13T07:18:51.807Z,1.12
2023-01-13T07:21:21.019Z,1.18
2023-01-13T07:23:49.076Z,1.23
2023-01-13T07:26:17.084Z,1.32
2023-01-13T07:28:48.922Z,1.35
2023-01-13T07:31:18.596Z,1.43
2023-01-13T07:33:46.457Z,1.45
2023-01-13T07:36:16.070Z,1.44
2023-01-13T07:38:47.093Z,1.47
2023-01-13T07:41:34.042Z,1.54
2023-01-13T07:44:05.202Z,1.63
2023-01-13T07:46:33.988Z,1.71
2023-01-13T07:49:01.203Z,1.86
2023-01-13T07:51:29.643Z,1.92
2023-01-13T07:53:57.479Z,1.95
2023-01-13T07:56:25.165Z,2.03
2023-01-13T07:58:53.201Z,2.07
2023-01-13T08:01:20.804Z,2.15
2023-01-13T08:03:47.972Z,2.20
2023-01-13T08:06:15.491Z,2.32
2023-01-13T08:08:45.087Z,2.28
2023-01-13T08:11:12.378Z,2.26
2023-01-13T08:13:39.571Z,2.29
2023-01-13T08:16:09.732Z,2.34
2023-01-13T08:18:38.532Z,2.36
2023-01-13T08:21:08.702Z,2.34
2023-01-13T08:23:36.374Z,2.37
2023-01-13T08:26:08.764Z,2.42
2023-01-13T08:28:35.810Z,2.41
2023-01-13T08:31:05.553Z,2.39
2023-01-13T08:33:33.734Z,2.44
2023-01-13T08:36:05.643Z,2.59
2023-01-13T08:38:34.776Z,2.66
2023-01-13T08:41:08.872Z,2.71
2023-01-13T08:43:36.047Z,2.89
2023-01-13T08:46:07.203Z,2.98
2023-01-13T08:48:34.586Z,3.07
2023-01-13T08:51:07.891Z,3.28
2023-01-13T08:53:35.164Z,3.43
2023-01-13T08:56:02.861Z,3.58
2023-01-13T08:58:30.134Z,3.61
2023-01-13T09:00:57.421Z,3.85
2023-01-13T09:03:24.763Z,4.19
2023-01-13T09:05:52.049Z,4.48
2023-01-13T09:08:19.651Z,4.80
2023-01-13T09:10:47.165Z,5.13
2023-01-13T09:13:15.749Z,5.31
2023-01-13T09:15:45.693Z,5.46
2023-01-13T09:18:13.648Z,5.55
2023-01-13T09:20:40.927Z,5.23
2023-01-13T09:23:10.624Z,5.40
2023-01-13T09:25:39.753Z,5.57
2023-01-13T09:28:08.913Z,5.64
2023-01-13T09:30:38.137Z,5.35
2023-01-13T09:33:23.836Z,5.45
2023-01-13T09:35:51.092Z,5.56
2023-01-13T09:38:20.048Z,5.70
2023-01-13T09:40:49.569Z,5.67
2023-01-13T09:43:53.845Z,5.83
2023-01-13T09:46:48.195Z,5.87
2023-01-13T09:49:23.039Z,5.89
2023-01-13T09:52:04.205Z,6.01
2023-01-13T09:54:38.849Z,6.12
2023-01-13T09:57:14.610Z,6.09
2023-01-13T09:59:42.764Z,6.12
2023-01-13T10:02:48.285Z,6.17
2023-01-13T10:05:20.842Z,6.19
2023-01-13T10:07:53.571Z,6.29
2023-01-13T10:10:49.177Z,6.40
2023-01-13T10:13:24.646Z,6.40
2023-01-13T10:16:13.162Z,6.36
2023-01-13T10:19:05.850Z,6.41
2023-01-13T10:21:39.495Z,6.47
2023-01-13T10:24:10.606Z,6.45
2023-01-13T10:26:53.725Z,6.50
2023-01-13T10:29:26.218Z,6.51
2023-01-13T10:31:57.829Z,6.41
2023-01-13T10:34:26.290Z,6.36
2023-01-13T10:37:09.727Z,6.45
2023-01-13T10:39:46.449Z,6.56
2023-01-13T10:42:22.348Z,6.49
2023-01-13T10:44:52.372Z,6.48
2023-01-13T10:47:31.636Z,6.48
2023-01-13T10:50:11.407Z,6.53
2023-01-13T10:52:43.262Z,6.63
2023-01-13T10:55:27.636Z,6.59
2023-01-13T10:57:54.931Z,6.49
2023-01-13T11:00:49.644Z,6.67
2023-01-13T11:03:18.926Z,6.77
2023-01-13T11:06:04.768Z,6.89
2023-01-13T11:08:45.394Z,7.29
2023-01-13T11:11:42.855Z,8.94
2023-01-13T11:14:46.621Z,9.37
2023-01-13T11:17:33.622Z,11.62
2023-01-13T11:20:14.207Z,13.51
2023-01-13T11:22:52.345Z,14.47
2023-01-13T11:25:44.941Z,14.20
2023-01-13T11:28:48.271Z,16.24
2023-01-13T11:31:20.269Z,18.02
2023-01-13T11:33:55.331Z,17.03
2023-01-13T11:36:31.676Z,18.32
2023-01-13T11:39:27.174Z,18.49
2023-01-13T11:42:19.327Z,16.78
2023-01-13T11:45:19.891Z,15.46
2023-01-13T11:47:51.530Z,14.97
2023-01-13T11:50:54.327Z,14.95
2023-01-13T11:53:49.845Z,15.55
2023-01-13T11:56:39.096Z,15.97
2023-01-13T11:59:37.399Z,17.20
2023-01-13T12:02:04.687Z,16.65
2023-01-13T12:04:49.299Z,15.76
2023-01-13T12:07:25.932Z,15.09
2023-01-13T12:10:29.298Z,13.83
2023-01-13T12:13:09.951Z,12.90
2023-01-13T12:16:01.636Z,12.40
2023-01-13T12:18:48.285Z,11.72
2023-01-13T12:21:25.927Z,11.20
2023-01-13T12:24:05.167Z,11.00
2023-01-13T12:26:39.391Z,10.89
2023-01-13T12:29:14.584Z,10.72
2023-01-13T12:31:44.390Z,10.55
2023-01-13T12:34:37.455Z,10.74
2023-01-13T12:37:10.841Z,10.97
2023-01-13T12:40:22.331Z,11.04
2023-01-13T12:43:26.914Z,11.21
2023-01-13T12:45:54.032Z,11.44
2023-01-13T12:49:00.244Z,11.62
2023-01-13T12:51:38.483Z,11.67
2023-01-13T12:54:38.086Z,11.14
2023-01-13T12:57:24.967Z,11.00
2023-01-13T13:00:16.565Z,10.89
2023-01-13T13:03:06.157Z,10.51
2023-01-13T13:05:59.510Z,10.01
2023-01-13T13:08:43.048Z,9.78
2023-01-13T13:11:49.882Z,9.54
2023-01-13T13:14:37.918Z,9.21
2023-01-13T13:17:11.773Z,9.06
2023-01-13T13:19:39.349Z,8.88
2023-01-13T13:22:12.486Z,8.64
2023-01-13T13:24:42.405Z,8.36
2023-01-13T13:27:45.216Z,8.20
2023-01-13T13:30:49.358Z,8.13
2023-01-13T13:33:32.164Z,8.13
2023-01-13T13:36:40.248Z,7.98
2023-01-13T13:39:47.448Z,8.00
2023-01-13T13:42:36.568Z,7.96
2023-01-13T13:45:34.966Z,7.84
2023-01-13T13:48:39.639Z,7.84
2023-01-13T13:51:49.623Z,7.52
2023-01-13T13:54:21.396Z,7.45
2023-01-13T13:56:51.043Z,7.41
2023-01-13T13:59:27.241Z,7.34
2023-01-13T14:02:06.488Z,7.31
2023-01-13T14:04:37.117Z,7.29
2023-01-13T14:07:21.096Z,7.22
2023-01-13T14:09:52.930Z,7.18
2023-01-13T14:12:26.138Z,7.15
2023-01-13T14:14:57.720Z,7.10
2023-01-13T14:17:28.062Z,7.03
2023-01-13T14:20:06.363Z,7.07
2023-01-13T14:22:35.217Z,6.98
2023-01-13T14:25:03.892Z,6.95
2023-01-13T14:27:32.296Z,6.90
2023-01-13T14:30:01.878Z,6.94
2023-01-13T14:32:36.749Z,6.91
2023-01-13T14:35:07.805Z,6.88
2023-01-13T14:37:41.026Z,6.73
2023-01-13T14:40:33.890Z,6.59
2023-01-13T14:43:03.989Z,6.51
2023-01-13T14:45:33.533Z,6.42
2023-01-13T14:48:02.812Z,6.38
2023-01-13T14:50:34.424Z,6.31
2023-01-13T14:53:02.753Z,6.15
2023-01-13T14:55:41.609Z,6.05
2023-01-13T14:58:26.417Z,6.06
2023-01-13T15:01:27.072Z,6.06
2023-01-13T15:03:54.738Z,6.01
2023-01-13T15:06:27.151Z,5.98
2023-01-13T15:08:54.673Z,5.91
2023-01-13T15:11:28.879Z,5.81
2023-01-13T15:14:04.566Z,5.78
2023-01-13T15:16:34.717Z,5.74
2023-01-13T15:19:03.604Z,5.98
2023-01-13T15:21:32.098Z,6.22
2023-01-13T15:24:02.749Z,6.36
2023-01-13T15:26:33.446Z,6.33
2023-01-13T15:29:01.435Z,6.20
2023-01-13T15:31:29.272Z,6.07
2023-01-13T15:33:59.046Z,5.94
2023-01-13T15:36:32.344Z,5.80
2023-01-13T15:39:02.174Z,5.67
2023-01-13T15:41:48.170Z,5.57
2023-01-13T15:44:35.970Z,5.41
2023-01-13T15:47:07.388Z,5.28
2023-01-13T15:49:45.106Z,5.17
2023-01-13T15:52:25.604Z,5.13
2023-01-13T15:54:54.533Z,5.12
2023-01-13T15:57:31.850Z,5.15
2023-01-13T16:00:02.899Z,5.14
2023-01-13T16:02:34.288Z,5.10
2023-01-13T16:05:02.408Z,5.04
2023-01-13T16:07:30.047Z,4.99
2023-01-13T16:09:57.694Z,4.96
2023-01-13T16:12:24.894Z,4.92
2023-01-13T16:14:53.053Z,4.89
2023-01-13T16:17:23.778Z,4.81
2023-01-13T16:19:52.173Z,4.75
2023-01-13T16:22:19.393Z,4.70
2023-01-13T16:24:48.592Z,4.63
2023-01-13T16:27:22.510Z,4.55
2023-01-13T16:29:51.982Z,4.55
2023-01-13T16:32:22.327Z,4.52
2023-01-13T16:34:51.174Z,4.51
2023-01-13T16:37:26.354Z,4.51
2023-01-13T16:39:54.875Z,4.45
2023-01-13T16:42:23.345Z,4.40
2023-01-13T16:44:52.068Z,4.37
2023-01-13T16:47:19.762Z,4.38
2023-01-13T16:49:48.233Z,4.30
2023-01-13T16:52:15.597Z,4.31
2023-01-13T16:54:42.718Z,4.30
2023-01-13T16:57:14.007Z,4.30
2023-01-13T16:59:45.481Z,4.44
2023-01-13T17:02:16.806Z,4.41
2023-01-13T17:04:43.904Z,4.38
2023-01-13T17:07:17.449Z,4.32
2023-01-13T17:09:45.830Z,4.26
2023-01-13T17:12:13.859Z,4.23
2023-01-13T17:14:43.613Z,4.19
2023-01-13T17:17:22.195Z,4.15
2023-01-13T17:19:49.367Z,4.12
2023-01-13T17:22:16.825Z,4.08
2023-01-13T17:24:44.086Z,4.03
2023-01-13T17:27:13.846Z,4.01
2023-01-13T17:29:42.808Z,4.01
2023-01-13T17:32:16.242Z,3.98
2023-01-13T17:34:44.406Z,3.95
2023-01-13T17:37:16.734Z,3.94
2023-01-13T17:39:46.568Z,3.89
2023-01-13T17:42:14.569Z,3.88
2023-01-13T17:44:43.219Z,3.89
2023-01-13T17:47:11.341Z,3.87
2023-01-13T17:49:39.799Z,3.85
2023-01-13T17:52:08.112Z,3.79
2023-01-13T17:54:36.163Z,3.81
2023-01-13T17:57:04.564Z,3.80
2023-01-13T17:59:32.708Z,3.78
2023-01-13T18:02:00.633Z,3.73
2023-01-13T18:04:29.218Z,3.59
2023-01-13T18:06:59.845Z,3.58
2023-01-13T18:09:30.720Z,3.61
2023-01-13T18:11:59.202Z,3.64
2023-01-13T18:14:28.593Z,3.67
2023-01-13T18:16:56.076Z,3.70
2023-01-13T18:19:42.798Z,3.73
2023-01-13T18:22:33.533Z,3.72
2023-01-13T18:25:21.797Z,3.66
2023-01-13T18:27:49.124Z,3.64
2023-01-13T18:30:16.415Z,3.61
2023-01-13T18:32:43.685Z,3.57
2023-01-13T18:35:12.237Z,3.51
2023-01-13T18:37:43.856Z,3.52
2023-01-13T18:40:13.858Z,3.48
2023-01-13T18:43:00.578Z,3.51
2023-01-13T18:45:29.995Z,3.47
2023-01-13T18:48:00.479Z,3.42
2023-01-13T18:50:28.729Z,3.42
2023-01-13T18:52:57.776Z,3.37
2023-01-13T18:55:26.149Z,3.33
2023-01-13T18:57:57.358Z,3.46
2023-01-13T19:00:25.830Z,3.37
2023-01-13T19:05:38.472Z,3.27
2023-01-13T19:08:07.171Z,3.23
2023-01-13T19:10:34.718Z,3.21
2023-01-13T19:13:03.520Z,3.19
2023-01-13T19:15:31.889Z,3.11
2023-01-13T19:18:01.350Z,2.99
2023-01-13T19:20:29.530Z,3.01
2023-01-13T19:22:57.316Z,3.07
2023-01-13T19:25:25.338Z,3.25
2023-01-13T19:27:55.828Z,3.24
2023-01-13T19:30:25.497Z,3.25
2023-01-13T19:32:53.044Z,3.19
2023-01-13T19:35:20.601Z,3.21
2023-01-13T19:37:48.559Z,3.23
2023-01-13T19:40:16.730Z,3.25
2023-01-13T19:43:03.986Z,3.29
2023-01-13T19:45:36.172Z,3.36
2023-01-13T19:48:06.724Z,3.41
2023-01-13T19:50:43.086Z,3.41
2023-01-13T19:53:21.061Z,3.50
2023-01-13T19:55:50.086Z,3.53
2023-01-13T19:58:20.223Z,3.54
2023-01-13T20:00:56.625Z,3.56
2023-01-13T20:03:33.326Z,3.54
2023-01-13T20:06:12.157Z,3.66
2023-01-13T20:08:41.551Z,3.69
2023-01-13T20:11:31.148Z,3.82
2023-01-13T20:13:59.521Z,3.79
2023-01-13T20:16:33.122Z,3.77
2023-01-13T20:19:00.174Z,3.70
2023-01-13T20:21:28.727Z,3.73
2023-01-13T20:23:59.164Z,3.69
2023-01-13T20:26:27.225Z,3.56
2023-01-13T20:28:54.484Z,3.53
2023-01-13T20:31:21.988Z,3.47
2023-01-13T20:33:50.948Z,3.47
2023-01-13T20:36:32.311Z,3.47
2023-01-13T20:39:01.984Z,3.40
2023-01-13T20:41:48.563Z,3.41
2023-01-13T20:44:16.251Z,3.57
2023-01-13T20:46:45.090Z,3.55
2023-01-13T20:49:15.213Z,3.54
2023-01-13T20:51:47.317Z,3.47
2023-01-13T20:54:16.417Z,3.44
2023-01-13T20:56:44.962Z,3.35
2023-01-13T20:59:13.361Z,3.39
2023-01-13T21:01:40.690Z,3.38
2023-01-13T21:04:08.751Z,3.40
2023-01-13T21:06:36.485Z,3.54
2023-01-13T21:09:04.162Z,3.51
2023-01-13T21:11:49.855Z,3.41
2023-01-13T21:14:39.364Z,3.34
2023-01-13T21:17:08.641Z,3.35
2023-01-13T21:19:35.778Z,3.31
2023-01-13T21:22:04.403Z,3.19
2023-01-13T21:24:31.976Z,3.16
2023-01-13T21:27:00.167Z,3.17
2023-01-13T21:29:29.682Z,3.15
2023-01-13T21:31:57.651Z,3.14
2023-01-13T21:34:24.964Z,3.19
2023-01-13T21:36:52.082Z,3.15
2023-01-13T21:39:19.191Z,3.11
2023-01-13T21:42:04.885Z,3.11
2023-01-13T21:44:50.674Z,3.06
2023-01-13T21:47:39.924Z,3.05
2023-01-13T21:50:13.376Z,3.06
2023-01-13T21:52:44.003Z,3.02
2023-01-13T21:55:25.047Z,2.98
2023-01-13T21:58:10.423Z,2.98
2023-01-13T22:00:38.857Z,2.92
2023-01-13T22:03:08.173Z,2.99
2023-01-13T22:05:37.525Z,2.89
2023-01-13T22:08:05.617Z,2.84
2023-01-13T22:10:34.225Z,2.83
2023-01-13T22:13:23.691Z,2.79
2023-01-13T22:15:52.167Z,2.76
2023-01-13T22:18:20.244Z,2.74
2023-01-13T22:20:49.364Z,2.68
2023-01-13T22:23:16.907Z,2.62
2023-01-13T22:25:44.487Z,2.53
2023-01-13T22:28:14.552Z,2.47
2023-01-13T22:30:41.819Z,2.43
2023-01-13T22:33:09.045Z,2.30
2023-01-13T22:35:36.327Z,2.24
2023-01-13T22:38:03.508Z,2.17
2023-01-13T22:40:30.723Z,2.16
2023-01-13T22:42:58.006Z,2.03
2023-01-13T22:45:25.153Z,2.01
2023-01-13T22:47:52.652Z,2.04
2023-01-13T22:50:21.185Z,2.09
2023-01-13T22:52:48.882Z,2.13
2023-01-13T22:55:16.056Z,2.14
2023-01-13T22:57:48.239Z,2.21
2023-01-13T23:00:19.346Z,2.11
2023-01-13T23:02:47.205Z,2.05
2023-01-13T23:05:14.323Z,2.09
2023-01-13T23:07:41.675Z,2.17
2023-01-13T23:10:09.203Z,2.18
2023-01-13T23:12:36.182Z,2.20
2023-01-13T23:15:04.251Z,2.22
2023-01-13T23:17:31.446Z,2.23
2023-01-13T23:19:58.803Z,2.24
2023-01-13T23:22:25.848Z,2.21
2023-01-13T23:24:53.206Z,2.17
2023-01-13T23:27:20.490Z,2.09
2023-01-13T23:29:48.095Z,1.98
2023-01-13T23:32:15.290Z,1.96
2023-01-13T23:34:42.557Z,1.86
2023-01-13T23:37:09.527Z,1.72
2023-01-13T23:39:37.034Z,1.62
2023-01-13T23:42:04.517Z,1.60
2023-01-13T23:44:31.601Z,1.47
2023-01-13T23:46:58.964Z,1.48
2023-01-13T23:49:26.005Z,1.41
2023-01-13T23:51:53.291Z,1.33
2023-01-13T23:54:20.484Z,1.29
2023-01-13T23:56:50.489Z,1.22
2023-01-13T23:59:18.784Z,1.13
